• Join FlightAware (Why Join?)
  • Login
  • US Flag 
09:15PM EDT


 

Airport Tracker/Info


-or-


 

Live Flight TrackerFlight Track Log ✈ XOJ784 ✈ 11-Jul-2013 ✈ KAUS - KHOU

Flight Track Log - Related Links

Times and Time Zones

All times are in EDT time to prevent confusion due to time zone crossing. See the XOJ784 flight status page for this flight to view local times or setup timezone preferences in your user account.

Time Position Orientation Groundspeed Altitude Reporting Facility
EDT Latitude Longitude Course Direction KTS MPH feet Rate Location/Type
04:08PM 30.1350 -97.5700 99° East 255 293 5,500  Level Houston Center
04:09PM 30.1611 -97.4825 71° East 283 326 9,400 2,940 Climbing Houston Center
04:10PM 30.2036 -97.3981 60° Northeast 300 345 11,600 2,100 Climbing Houston Center
04:11PM 30.2497 -97.2986 62° Northeast 340 391 13,800 2,040 Climbing Houston Center
04:12PM 30.2969 -97.1975 62° Northeast 353 406 15,900 1,500 Climbing Houston Center
04:13PM 30.3615 -97.2805 99° East  Level FlightAware Approximate
04:13PM 30.3483 -97.0669 65° Northeast 380 437 17,000  Level Houston Center
04:14PM 30.3433 -96.9325 92° East 419 482 17,000  Level Houston Center
04:15PM 30.3325 -96.7983 95° East 418 481 17,000  Level Houston Center
04:16PM 30.3125 -96.6656 100° East 417 480 17,000  Level Houston Center
04:17PM 30.2819 -96.5386 106° East 409 471 17,000 -1,140 Level Houston Center
04:18PM 30.2550 -96.4200 105° East 417 480 14,900 -2,580 Descending Houston Center
04:19PM 30.2256 -96.2928 105° East 400 460 12,300 -1,920 Descending Houston Center
04:20PM 30.1619 -96.1864 125° Southeast 387 445 11,000 -660 Descending Houston Center
04:21PM 30.0650 -96.1322 154° Southeast 384 442 11,000 -540 Level Houston Center
04:22PM 29.9772 -96.0844 155° Southeast 320 368 10,000 -1,320 Descending Houston Center
04:23PM 29.8986 -96.0258 147° Southeast 294 338 8,200 -1,440 Descending Houston Center
04:24PM 29.8522 -95.9517 126° Southeast 289 333 7,000 -600 Descending Houston Center
04:25PM 29.8058 -95.8775 126° Southeast 282 325 7,000 -120 Level Houston Center
04:26PM 29.7619 -95.8056 125° Southeast 246 283 6,800 -540 Descending Houston Center
04:27PM 29.7228 -95.7428 126° Southeast 231 266 6,000 -420 Descending Houston Center
04:28PM 29.6856 -95.6797 124° Southeast 236 272 6,000  Level Houston Center
04:29PM 29.6486 -95.6192 125° Southeast 237 273 6,000 -240 Level Houston Center
04:30PM 29.6803 -95.5506 62° Northeast 225 259 5,600 -960 Descending Houston Center
04:31PM 29.7064 -95.4897 64° Northeast 214 246 4,100 -1,620 Descending Houston Center
04:32PM 29.7108 -95.4244 86° East 202 232 2,400 -1,080 Descending Houston Center
04:33PM 29.7108 -95.3569 90° East 170 196 1,900 -540 Descending Houston Center
04:34PM 29.6850 -95.3264 134° Southeast 142 163 1,400 -780 Descending Houston Center
04:35PM 29.6592 -95.2958 134° Southeast 133 153 400 -600 Descending Houston Center
04:37PM 29.6286 -95.2586 133° Southeast 142 163 100 -240 Descending Houston Center